createdAt,value
2018-02-05T00:00:12.982Z,19.77
2018-02-05T00:02:40.478Z,20.52
2018-02-05T00:05:07.998Z,20.50
2018-02-05T00:07:35.689Z,21.50
2018-02-05T00:10:03.190Z,20.27
2018-02-05T00:12:30.717Z,18.60
2018-02-05T00:14:58.228Z,20.70
2018-02-05T00:17:25.748Z,20.25
2018-02-05T00:19:53.268Z,20.40
2018-02-05T00:22:20.785Z,22.85
2018-02-05T00:24:48.330Z,21.55
2018-02-05T00:27:15.848Z,21.35
2018-02-05T00:29:43.385Z,22.20
2018-02-05T00:32:10.920Z,19.73
2018-02-05T00:34:38.436Z,18.15
2018-02-05T00:37:06.000Z,17.85
2018-02-05T00:39:33.517Z,20.75
2018-02-05T00:42:01.821Z,19.87
2018-02-05T00:44:29.325Z,17.85
2018-02-05T00:46:56.844Z,19.50
2018-02-05T00:49:24.390Z,21.92
2018-02-05T00:51:51.905Z,20.35
2018-02-05T00:54:19.436Z,19.95
2018-02-05T00:56:46.933Z,20.62
2018-02-05T00:59:15.225Z,20.58
2018-02-05T01:01:42.764Z,20.70
2018-02-05T01:04:11.044Z,19.52
2018-02-05T01:06:39.376Z,20.45
2018-02-05T01:09:06.874Z,20.23
2018-02-05T01:11:35.166Z,19.00
2018-02-05T01:14:03.445Z,19.52
2018-02-05T01:16:30.988Z,18.85
2018-02-05T01:18:59.306Z,20.33
2018-02-05T01:21:32.657Z,20.00
2018-02-05T01:24:00.190Z,18.10
2018-02-05T01:26:27.716Z,17.67
2018-02-05T01:28:55.237Z,18.95
2018-02-05T01:31:23.555Z,18.23
2018-02-05T01:33:51.067Z,19.25
2018-02-05T01:36:19.356Z,19.73
2018-02-05T01:38:47.662Z,17.95
2018-02-05T01:41:15.163Z,19.23
2018-02-05T01:43:42.718Z,18.55
2018-02-05T01:46:10.226Z,20.50
2018-02-05T01:48:37.758Z,18.55
2018-02-05T01:51:06.030Z,18.60
2018-02-05T01:53:33.553Z,18.48
2018-02-05T01:56:01.093Z,19.45
2018-02-05T01:58:28.599Z,18.30
2018-02-05T02:00:56.134Z,17.95
2018-02-05T02:03:23.633Z,19.50
2018-02-05T02:05:51.916Z,16.67
2018-02-05T02:08:20.222Z,17.92
2018-02-05T02:10:47.745Z,18.20
2018-02-05T02:13:16.056Z,18.40
2018-02-05T02:15:43.557Z,17.02
2018-02-05T02:18:11.063Z,18.95
2018-02-05T02:20:38.591Z,18.42
2018-02-05T02:23:06.877Z,16.55
2018-02-05T02:25:35.170Z,17.23
2018-02-05T02:28:02.683Z,16.98
2018-02-05T02:30:30.182Z,17.67
2018-02-05T02:32:57.737Z,18.90
2018-02-05T02:35:25.295Z,17.87
2018-02-05T02:37:52.837Z,19.83
2018-02-05T02:40:21.121Z,15.88
2018-02-05T02:42:49.390Z,15.85
2018-02-05T02:45:17.692Z,15.20
2018-02-05T02:47:45.193Z,15.95
2018-02-05T02:50:12.731Z,15.00
2018-02-05T02:52:40.261Z,17.27
2018-02-05T02:55:07.795Z,16.48
2018-02-05T02:57:36.073Z,15.52
2018-02-05T03:00:04.365Z,16.60
2018-02-05T03:02:32.670Z,17.80
2018-02-05T03:05:00.178Z,16.85
2018-02-05T03:07:27.720Z,15.25
2018-02-05T03:09:55.232Z,17.20
2018-02-05T03:12:22.753Z,16.83
2018-02-05T03:14:50.296Z,15.32
2018-02-05T03:17:17.808Z,16.60
2018-02-05T03:19:45.342Z,17.45
2018-02-05T03:22:13.631Z,14.13
2018-02-05T03:24:41.140Z,15.75
2018-02-05T03:27:08.662Z,17.70
2018-02-05T03:29:36.173Z,17.10
2018-02-05T03:32:03.733Z,17.15
2018-02-05T03:34:31.229Z,16.35
2018-02-05T03:36:58.743Z,16.12
2018-02-05T03:39:26.284Z,14.85
2018-02-05T03:41:53.800Z,14.60
2018-02-05T03:44:21.329Z,17.17
2018-02-05T03:46:48.855Z,17.45
2018-02-05T03:49:16.358Z,15.60
2018-02-05T03:51:44.649Z,16.17
2018-02-05T03:54:12.916Z,15.93
2018-02-05T03:56:41.214Z,16.33
2018-02-05T03:59:08.729Z,16.65
2018-02-05T04:01:36.225Z,16.27
2018-02-05T04:04:03.740Z,17.05
2018-02-05T04:06:32.071Z,17.37
2018-02-05T04:08:59.591Z,15.93
2018-02-05T04:11:27.090Z,15.57
2018-02-05T04:13:54.656Z,15.63
2018-02-05T04:16:22.198Z,16.58
2018-02-05T04:18:49.697Z,16.37
2018-02-05T04:21:17.215Z,19.90
2018-02-05T04:23:44.718Z,18.52
2018-02-05T04:26:12.254Z,17.37
2018-02-05T04:28:41.299Z,16.40
2018-02-05T04:31:09.564Z,17.12
2018-02-05T04:33:37.087Z,17.55
2018-02-05T04:36:04.608Z,19.65
2018-02-05T04:38:32.141Z,15.20
2018-02-05T04:40:59.645Z,17.48
2018-02-05T04:43:27.172Z,15.95
2018-02-05T04:45:55.457Z,18.00
2018-02-05T04:48:23.716Z,16.98
2018-02-05T04:50:52.029Z,18.00
2018-02-05T04:53:19.549Z,16.55
2018-02-05T04:55:47.822Z,18.05
2018-02-05T04:58:15.349Z,16.87
2018-02-05T05:00:42.857Z,16.75
2018-02-05T05:03:10.431Z,16.60
2018-02-05T05:05:37.954Z,16.75
2018-02-05T05:08:05.460Z,19.73
2018-02-05T05:10:32.986Z,22.70
2018-02-05T05:13:01.275Z,19.42
2018-02-05T05:15:28.802Z,18.33
2018-02-05T05:17:56.310Z,16.95
2018-02-05T05:20:23.823Z,18.87
2018-02-05T05:22:51.342Z,23.38
2018-02-05T05:25:18.853Z,26.75
2018-02-05T05:27:47.138Z,31.52
2018-02-05T05:30:15.429Z,31.20
2018-02-05T05:32:42.970Z,28.60
2018-02-05T05:35:11.237Z,26.05
2018-02-05T05:37:39.503Z,21.48
2018-02-05T05:40:07.033Z,20.12
2018-02-05T05:42:34.538Z,19.37
2018-02-05T05:45:02.857Z,24.33
2018-02-05T05:47:30.349Z,20.17
2018-02-05T05:49:57.858Z,19.00
2018-02-05T05:52:25.400Z,18.20
2018-02-05T05:54:52.910Z,16.90
2018-02-05T05:57:20.465Z,15.30
2018-02-05T05:59:47.962Z,16.30
2018-02-05T06:02:16.225Z,16.62
2018-02-05T06:04:43.753Z,23.00
2018-02-05T06:07:11.276Z,21.55
2018-02-05T06:09:38.819Z,28.38
2018-02-05T06:12:07.103Z,42.60
2018-02-05T06:14:34.636Z,33.67
2018-02-05T06:17:02.940Z,31.87
2018-02-05T06:19:30.465Z,24.90
2018-02-05T06:21:58.012Z,22.60
2018-02-05T06:24:25.525Z,17.95
2018-02-05T06:26:53.031Z,19.37
2018-02-05T06:29:20.573Z,17.95
2018-02-05T06:31:48.070Z,16.60
2018-02-05T06:34:16.373Z,20.27
2018-02-05T06:36:43.878Z,17.87
2018-02-05T06:39:11.406Z,17.42
2018-02-05T06:41:38.902Z,20.00
2018-02-05T06:44:06.409Z,19.50
2018-02-05T06:46:33.933Z,16.92
2018-02-05T06:49:02.216Z,21.02
2018-02-05T06:51:42.429Z,18.00
2018-02-05T06:54:21.650Z,16.55
2018-02-05T06:56:49.199Z,15.15
2018-02-05T06:59:16.708Z,17.55
2018-02-05T07:01:44.206Z,16.37
2018-02-05T07:04:11.740Z,17.85
2018-02-05T07:06:40.015Z,15.70
2018-02-05T07:09:08.301Z,16.60
2018-02-05T07:11:36.567Z,16.20
2018-02-05T07:14:04.873Z,16.15
2018-02-05T07:16:32.392Z,16.40
2018-02-05T07:18:59.923Z,17.62
2018-02-05T07:21:27.440Z,17.80
2018-02-05T07:23:54.954Z,21.58
2018-02-05T07:26:22.505Z,20.45
2018-02-05T07:28:50.021Z,20.12
2018-02-05T07:31:17.561Z,20.20
2018-02-05T07:33:45.863Z,17.90
2018-02-05T07:36:13.373Z,18.17
2018-02-05T07:38:40.895Z,17.90
2018-02-05T07:41:08.399Z,17.73
2018-02-05T07:43:36.725Z,16.95
2018-02-05T07:46:04.226Z,20.85
2018-02-05T07:48:31.753Z,18.08
2018-02-05T07:50:59.289Z,18.27
2018-02-05T07:53:26.807Z,17.17
2018-02-05T08:05:05.125Z,21.83
2018-02-05T08:07:33.008Z,20.95
2018-02-05T08:10:03.211Z,21.25
2018-02-05T08:12:31.380Z,21.08
2018-02-05T08:15:00.010Z,21.02
2018-02-05T08:17:27.705Z,20.20
2018-02-05T08:19:56.094Z,20.83
2018-02-05T08:22:23.777Z,26.05
2018-02-05T08:24:53.580Z,20.17
2018-02-05T08:27:22.685Z,20.20
2018-02-05T08:29:51.381Z,22.75
2018-02-05T08:32:22.572Z,17.92
2018-02-05T08:34:53.087Z,17.30
2018-02-05T08:37:22.613Z,19.75
2018-02-05T08:39:51.873Z,20.45
2018-02-05T08:42:20.662Z,22.33
2018-02-05T08:44:49.326Z,23.17
2018-02-05T08:47:17.711Z,23.85
2018-02-05T08:49:45.360Z,22.50
2018-02-05T08:52:14.420Z,22.42
2018-02-05T08:54:42.706Z,20.77
2018-02-05T08:57:10.887Z,20.52
2018-02-05T08:59:39.430Z,20.85
2018-02-05T09:02:10.970Z,24.75
2018-02-05T09:04:40.515Z,19.90
2018-02-05T09:07:08.207Z,20.20
2018-02-05T09:09:36.103Z,18.85
2018-02-05T09:12:04.325Z,22.48
2018-02-05T09:14:32.613Z,19.80
2018-02-05T09:17:01.931Z,19.85
2018-02-05T09:19:30.466Z,18.83
2018-02-05T09:21:58.056Z,21.08
2018-02-05T09:24:25.601Z,19.58
2018-02-05T09:26:55.682Z,19.37
2018-02-05T09:29:23.320Z,20.37
2018-02-05T09:31:51.706Z,18.60
2018-02-05T09:34:19.381Z,18.27
2018-02-05T09:36:47.094Z,20.75
2018-02-05T09:39:16.911Z,30.60
2018-02-05T09:41:45.004Z,27.48
2018-02-05T09:44:14.556Z,23.60
2018-02-05T09:46:43.136Z,25.80
2018-02-05T09:49:16.764Z,23.15
2018-02-05T09:51:50.583Z,24.12
2018-02-05T09:54:21.257Z,24.42
2018-02-05T09:56:59.462Z,25.37
2018-02-05T09:59:29.516Z,23.98
2018-02-05T10:01:58.237Z,25.88
2018-02-05T10:04:33.318Z,23.45
2018-02-05T10:07:10.573Z,27.17
2018-02-05T10:09:40.774Z,22.55
2018-02-05T10:12:10.559Z,22.33
2018-02-05T10:14:40.690Z,22.33
2018-02-05T10:17:11.805Z,21.02
2018-02-05T10:19:41.257Z,25.05
2018-02-05T10:22:08.833Z,24.20
2018-02-05T10:24:37.261Z,22.25
2018-02-05T10:27:10.933Z,21.55
2018-02-05T10:29:39.535Z,22.75
2018-02-05T10:32:07.842Z,23.62
2018-02-05T10:34:36.584Z,22.17
2018-02-05T10:37:04.219Z,23.23
2018-02-05T10:39:32.647Z,22.90
2018-02-05T10:42:30.854Z,21.08
2018-02-05T11:00:23.952Z,20.92
2018-02-05T11:02:51.539Z,20.90
2018-02-05T11:05:19.823Z,20.73
2018-02-05T11:07:48.082Z,20.00
2018-02-05T11:10:15.593Z,19.60
2018-02-05T11:12:43.087Z,18.60
2018-02-05T11:15:10.597Z,18.23
2018-02-05T11:17:39.348Z,16.23
2018-02-05T11:20:06.861Z,16.70
2018-02-05T11:22:34.361Z,14.90
2018-02-05T11:25:01.869Z,12.05
2018-02-05T11:27:29.371Z,11.75
2018-02-05T11:29:57.078Z,10.63
2018-02-05T11:32:25.379Z,9.82
2018-02-05T11:34:53.775Z,11.40
2018-02-05T11:37:21.288Z,11.15
2018-02-05T11:39:48.824Z,10.40
2018-02-05T11:42:16.323Z,10.27
2018-02-05T11:44:44.576Z,11.82
2018-02-05T11:47:12.078Z,11.10
2018-02-05T11:49:39.570Z,11.57
2018-02-05T11:52:07.088Z,11.65
2018-02-05T11:54:35.603Z,10.63
2018-02-05T11:57:03.155Z,13.60
2018-02-05T11:59:30.659Z,13.95
2018-02-05T12:01:58.829Z,14.98
2018-02-05T12:04:26.337Z,14.80
2018-02-05T12:06:53.854Z,15.38
2018-02-05T12:09:21.365Z,13.52
2018-02-05T12:11:48.896Z,14.18
2018-02-05T12:14:17.168Z,13.85
2018-02-05T12:16:45.444Z,14.43
2018-02-05T12:19:13.720Z,14.70
2018-02-05T12:21:42.005Z,15.05
2018-02-05T12:24:09.502Z,15.10
2018-02-05T12:26:37.023Z,15.82
2018-02-05T12:29:04.514Z,16.20
2018-02-05T12:31:32.036Z,14.90
2018-02-05T12:33:59.543Z,14.95
2018-02-05T12:36:27.042Z,15.40
2018-02-05T12:38:55.327Z,14.27
2018-02-05T12:41:23.595Z,14.18
2018-02-05T12:43:51.864Z,15.73
2018-02-05T12:46:20.123Z,16.37
2018-02-05T12:48:47.668Z,15.05
2018-02-05T12:51:15.157Z,14.40
2018-02-05T12:53:43.421Z,17.62
2018-02-05T12:56:10.904Z,15.40
2018-02-05T12:58:39.187Z,15.25
2018-02-05T13:01:23.356Z,14.25
2018-02-05T13:07:02.552Z,14.77
2018-02-05T13:09:30.067Z,16.08
2018-02-05T13:11:57.566Z,16.23
2018-02-05T13:14:25.070Z,15.85
2018-02-05T13:16:52.589Z,16.73
2018-02-05T13:19:20.089Z,16.02
2018-02-05T13:21:47.591Z,16.85
2018-02-05T13:24:15.116Z,15.65
2018-02-05T13:26:42.622Z,15.93
2018-02-05T13:29:10.148Z,17.20
2018-02-05T13:31:37.640Z,15.65
2018-02-05T13:34:05.149Z,16.92
2018-02-05T13:36:32.668Z,16.40
2018-02-05T13:39:00.955Z,17.85
2018-02-05T13:41:29.223Z,16.77
2018-02-05T13:43:57.502Z,16.30
2018-02-05T13:46:25.757Z,16.92
2018-02-05T13:48:53.274Z,14.00
2018-02-05T13:51:20.769Z,15.98
2018-02-05T13:53:48.277Z,15.60
2018-02-05T13:56:15.805Z,16.35
2018-02-05T13:58:44.057Z,15.55
2018-02-05T14:01:11.563Z,17.50
2018-02-05T14:03:39.077Z,15.93
2018-02-05T14:06:06.608Z,16.77
2018-02-05T14:08:34.102Z,16.42
2018-02-05T14:11:01.623Z,17.05
2018-02-05T14:13:29.127Z,14.87
2018-02-05T14:15:57.406Z,15.05
2018-02-05T14:18:25.665Z,16.25
2018-02-05T14:20:53.195Z,15.73
2018-02-05T14:23:21.468Z,15.10
2018-02-05T14:25:49.770Z,15.63
2018-02-05T14:28:17.322Z,15.73
2018-02-05T14:30:44.819Z,16.58
2018-02-05T14:33:13.072Z,16.00
2018-02-05T14:35:41.366Z,15.38
2018-02-05T14:38:09.635Z,15.50
2018-02-05T14:40:37.936Z,13.25
2018-02-05T14:43:05.443Z,12.43
2018-02-05T14:45:32.928Z,11.57
2018-02-05T14:48:00.460Z,13.02
2018-02-05T14:50:27.963Z,13.88
2018-02-05T14:52:55.488Z,13.05
2018-02-05T14:55:22.982Z,12.95
2018-02-05T14:57:50.487Z,14.70
2018-02-05T15:00:17.994Z,14.23
2018-02-05T15:02:45.527Z,14.55
2018-02-05T15:05:13.797Z,13.18
2018-02-05T15:07:41.324Z,12.30
2018-02-05T15:10:08.814Z,12.60
2018-02-05T15:12:36.331Z,15.60
2018-02-05T15:15:03.831Z,12.93
2018-02-05T15:17:31.347Z,14.93
2018-02-05T15:19:58.860Z,12.75
2018-02-05T15:22:27.152Z,14.45
2018-02-05T15:24:54.640Z,14.23
2018-02-05T15:27:22.165Z,12.65
2018-02-05T15:29:50.417Z,13.77
2018-02-05T15:32:17.929Z,12.60
2018-02-05T15:34:45.444Z,14.40
2018-02-05T15:37:13.724Z,13.32
2018-02-05T15:39:42.014Z,13.32
2018-02-05T15:42:09.529Z,13.90
2018-02-05T15:44:37.029Z,13.18
2018-02-05T15:47:04.539Z,12.77
2018-02-05T15:49:32.057Z,13.95
2018-02-05T15:57:41.324Z,12.32
2018-02-05T16:03:10.200Z,13.90
2018-02-05T16:05:37.716Z,13.15
2018-02-05T16:08:06.006Z,13.85
2018-02-05T16:10:33.528Z,13.73
2018-02-05T16:13:01.203Z,12.82
2018-02-05T16:15:28.694Z,13.70
2018-02-05T16:17:56.199Z,14.45
2018-02-05T16:20:23.728Z,14.00
2018-02-05T16:22:51.217Z,14.18
2018-02-05T16:25:18.738Z,13.85
2018-02-05T16:27:46.232Z,15.00
2018-02-05T16:30:14.498Z,13.45
2018-02-05T16:32:42.028Z,15.82
2018-02-05T16:35:09.517Z,16.17
2018-02-05T16:37:37.045Z,16.55
2018-02-05T16:40:04.552Z,17.52
2018-02-05T16:42:32.041Z,19.62
2018-02-05T16:44:59.559Z,17.40
2018-02-05T16:47:27.054Z,15.23
2018-02-05T16:49:54.579Z,14.07
2018-02-05T16:52:22.070Z,14.05
2018-02-05T16:54:50.373Z,16.75
2018-02-05T16:57:17.889Z,15.82
2018-02-05T16:59:46.165Z,16.23
2018-02-05T17:02:14.438Z,15.18
2018-02-05T17:04:41.952Z,14.60
2018-02-05T17:07:09.755Z,14.40
2018-02-05T17:09:38.037Z,14.45
2018-02-05T17:12:06.317Z,14.70
2018-02-05T17:14:34.608Z,15.07
2018-02-05T17:17:02.865Z,13.55
2018-02-05T17:19:31.168Z,13.05
2018-02-05T17:21:58.666Z,14.23
2018-02-05T17:24:26.176Z,13.18
2018-02-05T17:26:54.453Z,14.73
2018-02-05T17:29:22.709Z,13.13
2018-02-05T17:31:50.999Z,12.40
2018-02-05T17:34:19.259Z,14.23
2018-02-05T17:36:47.545Z,12.70
2018-02-05T17:39:15.840Z,12.85
2018-02-05T17:41:43.334Z,12.45
2018-02-05T17:44:10.841Z,13.15
2018-02-05T17:46:39.108Z,11.07
2018-02-05T17:49:07.371Z,13.13
2018-02-05T17:51:34.895Z,13.18
2018-02-05T17:54:02.381Z,12.60
2018-02-05T17:56:29.899Z,12.23
2018-02-05T17:58:57.408Z,13.93
2018-02-05T18:01:24.944Z,13.38
2018-02-05T18:03:52.442Z,13.32
2018-02-05T18:06:20.716Z,12.60
2018-02-05T18:08:48.998Z,12.75
2018-02-05T18:11:17.279Z,14.23
2018-02-05T18:13:45.565Z,12.25
2018-02-05T18:16:13.054Z,12.20
2018-02-05T18:18:40.561Z,11.40
2018-02-05T18:21:08.827Z,12.37
2018-02-05T18:23:36.338Z,12.65
2018-02-05T18:26:03.851Z,12.73
2018-02-05T18:28:32.154Z,10.75
2018-02-05T18:30:59.655Z,10.90
2018-02-05T18:33:27.171Z,11.05
2018-02-05T18:35:54.677Z,10.15
2018-02-05T18:38:22.165Z,11.52
2018-02-05T18:40:50.472Z,10.98
2018-02-05T18:43:18.019Z,11.40
2018-02-05T18:45:46.254Z,10.40
2018-02-05T18:48:13.780Z,10.43
2018-02-05T18:50:41.287Z,10.82
2018-02-05T18:53:09.668Z,10.13
2018-02-05T18:55:37.931Z,11.88
2018-02-05T18:58:05.428Z,11.82
2018-02-05T19:00:54.696Z,11.55
2018-02-05T19:03:22.225Z,10.27
2018-02-05T19:05:50.514Z,13.60
2018-02-05T19:08:18.024Z,10.70
2018-02-05T19:10:45.532Z,12.40
2018-02-05T19:13:13.046Z,11.20
2018-02-05T19:15:40.556Z,12.00
2018-02-05T19:18:08.070Z,11.93
2018-02-05T19:20:35.580Z,12.40
2018-02-05T19:23:03.134Z,12.10
2018-02-05T19:25:30.645Z,10.98
2018-02-05T19:27:58.137Z,13.27
2018-02-05T19:30:25.669Z,12.02
2018-02-05T19:32:53.180Z,11.20
2018-02-05T19:35:20.712Z,11.70
2018-02-05T19:37:48.977Z,12.00
2018-02-05T19:40:17.237Z,12.43
2018-02-05T19:42:44.965Z,11.00
2018-02-05T19:45:12.481Z,11.27
2018-02-05T19:47:40.781Z,12.07
2018-02-05T19:50:08.397Z,13.30
2018-02-05T19:52:35.894Z,13.30
2018-02-05T19:55:03.398Z,12.85
2018-02-05T19:57:30.907Z,12.85
2018-02-05T19:59:58.439Z,13.32
2018-02-05T20:02:26.702Z,12.80
2018-02-05T20:04:54.213Z,13.50
2018-02-05T20:07:21.744Z,11.65
2018-02-05T20:09:50.007Z,12.15
2018-02-05T20:12:18.289Z,12.00
2018-02-05T20:14:46.555Z,13.02
2018-02-05T20:17:14.045Z,13.60
2018-02-05T20:19:41.553Z,12.68
2018-02-05T20:22:09.046Z,11.40
2018-02-05T20:24:37.321Z,10.65
2018-02-05T20:27:05.587Z,11.80
2018-02-05T20:29:33.873Z,11.20
2018-02-05T20:32:02.138Z,11.88
2018-02-05T20:34:30.423Z,11.45
2018-02-05T20:36:58.712Z,10.88
2018-02-05T20:39:26.205Z,11.93
2018-02-05T20:41:53.716Z,11.20
2018-02-05T20:44:21.982Z,11.68
2018-02-05T20:46:50.265Z,12.07
2018-02-05T20:49:18.565Z,10.98
2018-02-05T20:51:46.080Z,11.30
2018-02-05T20:54:13.607Z,11.88
2018-02-05T20:56:41.883Z,11.48
2018-02-05T20:59:10.150Z,12.10
2018-02-05T21:01:37.681Z,11.95
2018-02-05T21:04:05.196Z,11.45
2018-02-05T21:06:32.713Z,11.75
2018-02-05T21:09:00.206Z,13.18
2018-02-05T21:11:27.741Z,12.57
2018-02-05T21:13:55.256Z,12.25
2018-02-05T21:16:23.522Z,10.85
2018-02-05T21:18:51.072Z,12.23
2018-02-05T21:21:18.570Z,10.68
2018-02-05T21:23:46.089Z,11.63
2018-02-05T21:26:13.624Z,12.37
2018-02-05T21:28:41.121Z,11.73
2018-02-05T21:31:09.415Z,12.57
2018-02-05T21:33:36.928Z,12.55
2018-02-05T21:36:04.441Z,12.05
2018-02-05T21:38:31.955Z,11.25
2018-02-05T21:40:59.465Z,12.30
2018-02-05T21:43:27.003Z,12.07
2018-02-05T21:45:55.285Z,12.05
2018-02-05T21:48:22.800Z,11.93
2018-02-05T21:50:50.333Z,12.73
2018-02-05T21:53:17.844Z,11.10
2018-02-05T21:55:46.164Z,11.75
2018-02-05T21:58:13.654Z,12.77
2018-02-05T22:00:41.191Z,11.70
2018-02-05T22:03:08.733Z,13.88
2018-02-05T22:05:36.232Z,11.30
2018-02-05T22:08:03.750Z,11.12
2018-02-05T22:10:31.268Z,12.15
2018-02-05T22:12:59.567Z,11.65
2018-02-05T22:15:27.080Z,13.35
2018-02-05T22:17:54.573Z,12.13
2018-02-05T22:20:22.845Z,12.02
2018-02-05T22:22:50.673Z,13.27
2018-02-05T22:25:18.243Z,14.05
2018-02-05T22:27:45.748Z,12.00
2018-02-05T22:30:13.259Z,11.48
2018-02-05T22:32:40.786Z,12.32
2018-02-05T22:35:08.299Z,13.23
2018-02-05T22:37:36.600Z,12.55
2018-02-05T22:40:04.893Z,12.67
2018-02-05T22:42:33.172Z,13.10
2018-02-05T22:45:00.695Z,12.27
2018-02-05T22:47:28.973Z,14.73
2018-02-05T22:49:56.493Z,12.40
2018-02-05T22:52:24.004Z,13.32
2018-02-05T22:54:51.515Z,12.40
2018-02-05T22:57:19.025Z,12.65
2018-02-05T22:59:46.527Z,11.73
2018-02-05T23:02:14.033Z,12.60
2018-02-05T23:04:41.537Z,12.30
2018-02-05T23:07:09.058Z,13.05
2018-02-05T23:09:36.572Z,12.48
2018-02-05T23:12:04.084Z,13.20
2018-02-05T23:14:31.593Z,13.07
2018-02-05T23:16:59.149Z,14.85
2018-02-05T23:19:26.649Z,13.27
2018-02-05T23:21:54.161Z,13.15
2018-02-05T23:24:21.653Z,12.32
2018-02-05T23:26:49.179Z,12.40
2018-02-05T23:29:16.669Z,12.35
2018-02-05T23:31:44.189Z,14.48
2018-02-05T23:34:11.699Z,13.55
2018-02-05T23:36:39.202Z,13.18
2018-02-05T23:39:06.726Z,13.52
2018-02-05T23:41:34.240Z,12.35
2018-02-05T23:44:02.540Z,12.60
2018-02-05T23:46:30.056Z,14.90
2018-02-05T23:48:57.554Z,12.43
2018-02-05T23:51:25.078Z,14.18
2018-02-05T23:53:52.592Z,13.70
2018-02-05T23:56:20.114Z,14.05
2018-02-05T23:58:48.381Z,14.43
